sensor_id;sensor_type;location;lat;lon;timestamp;temperature;humidity
74940;HTU21D;63505;45.226;37.908;2023-06-10T00:01:49;20.10;68.36
74940;HTU21D;63505;45.226;37.908;2023-06-10T00:04:16;20.11;68.35
74940;HTU21D;63505;45.226;37.908;2023-06-10T00:06:45;20.10;68.35
74940;HTU21D;63505;45.226;37.908;2023-06-10T00:09:13;20.09;68.33
74940;HTU21D;63505;45.226;37.908;2023-06-10T00:11:40;20.07;68.30
74940;HTU21D;63505;45.226;37.908;2023-06-10T00:14:07;20.09;68.30
74940;HTU21D;63505;45.226;37.908;2023-06-10T00:16:33;20.07;68.36
74940;HTU21D;63505;45.226;37.908;2023-06-10T00:19:00;20.06;68.38
74940;HTU21D;63505;45.226;37.908;2023-06-10T00:21:28;20.04;68.37
74940;HTU21D;63505;45.226;37.908;2023-06-10T00:23:54;20.03;68.37
74940;HTU21D;63505;45.226;37.908;2023-06-10T00:26:23;20.02;68.40
74940;HTU21D;63505;45.226;37.908;2023-06-10T00:28:50;20.03;68.36
74940;HTU21D;63505;45.226;37.908;2023-06-10T00:31:17;20.03;68.33
74940;HTU21D;63505;45.226;37.908;2023-06-10T00:33:43;20.04;68.32
74940;HTU21D;63505;45.226;37.908;2023-06-10T00:36:09;20.01;68.36
74940;HTU21D;63505;45.226;37.908;2023-06-10T00:38:36;19.98;68.42
74940;HTU21D;63505;45.226;37.908;2023-06-10T00:41:02;19.97;68.46
74940;HTU21D;63505;45.226;37.908;2023-06-10T00:43:28;19.91;68.54
74940;HTU21D;63505;45.226;37.908;2023-06-10T00:45:54;19.89;68.62
74940;HTU21D;63505;45.226;37.908;2023-06-10T00:48:20;19.86;68.75
74940;HTU21D;63505;45.226;37.908;2023-06-10T00:50:46;19.85;68.83
74940;HTU21D;63505;45.226;37.908;2023-06-10T00:53:13;19.84;68.87
74940;HTU21D;63505;45.226;37.908;2023-06-10T00:55:40;19.85;68.91
74940;HTU21D;63505;45.226;37.908;2023-06-10T00:58:08;19.84;68.94
74940;HTU21D;63505;45.226;37.908;2023-06-10T01:00:34;19.85;68.94
74940;HTU21D;63505;45.226;37.908;2023-06-10T01:03:03;19.87;68.97
74940;HTU21D;63505;45.226;37.908;2023-06-10T01:05:34;19.85;69.03
74940;HTU21D;63505;45.226;37.908;2023-06-10T01:10:41;19.88;68.78
74940;HTU21D;63505;45.226;37.908;2023-06-10T01:13:10;19.90;68.75
74940;HTU21D;63505;45.226;37.908;2023-06-10T01:15:38;19.88;68.86
74940;HTU21D;63505;45.226;37.908;2023-06-10T01:18:07;19.90;68.95
74940;HTU21D;63505;45.226;37.908;2023-06-10T01:20:41;19.88;68.99
74940;HTU21D;63505;45.226;37.908;2023-06-10T01:23:10;19.89;69.07
74940;HTU21D;63505;45.226;37.908;2023-06-10T01:25:52;19.88;69.14
74940;HTU21D;63505;45.226;37.908;2023-06-10T01:28:49;19.88;69.31
74940;HTU21D;63505;45.226;37.908;2023-06-10T01:34:08;19.87;69.30
74940;HTU21D;63505;45.226;37.908;2023-06-10T01:36:36;19.82;69.42
74940;HTU21D;63505;45.226;37.908;2023-06-10T01:39:04;19.76;69.65
74940;HTU21D;63505;45.226;37.908;2023-06-10T01:41:31;19.73;69.84
74940;HTU21D;63505;45.226;37.908;2023-06-10T01:43:58;19.70;69.97
74940;HTU21D;63505;45.226;37.908;2023-06-10T01:46:24;19.70;70.06
74940;HTU21D;63505;45.226;37.908;2023-06-10T01:48:50;19.69;70.05
74940;HTU21D;63505;45.226;37.908;2023-06-10T01:51:16;19.69;70.10
74940;HTU21D;63505;45.226;37.908;2023-06-10T01:53:42;19.69;70.13
74940;HTU21D;63505;45.226;37.908;2023-06-10T01:56:07;19.69;70.18
74940;HTU21D;63505;45.226;37.908;2023-06-10T01:58:33;19.70;70.16
74940;HTU21D;63505;45.226;37.908;2023-06-10T02:00:59;19.74;70.07
74940;HTU21D;63505;45.226;37.908;2023-06-10T02:03:25;19.76;70.02
74940;HTU21D;63505;45.226;37.908;2023-06-10T02:05:52;19.79;69.94
74940;HTU21D;63505;45.226;37.908;2023-06-10T02:08:18;19.82;69.84
74940;HTU21D;63505;45.226;37.908;2023-06-10T02:10:43;19.84;69.80
74940;HTU21D;63505;45.226;37.908;2023-06-10T02:13:09;19.84;69.75
74940;HTU21D;63505;45.226;37.908;2023-06-10T02:15:35;19.87;69.74
74940;HTU21D;63505;45.226;37.908;2023-06-10T02:18:01;19.88;69.77
74940;HTU21D;63505;45.226;37.908;2023-06-10T02:20:27;19.88;69.81
74940;HTU21D;63505;45.226;37.908;2023-06-10T02:22:54;19.89;69.85
74940;HTU21D;63505;45.226;37.908;2023-06-10T02:25:19;19.88;69.90
74940;HTU21D;63505;45.226;37.908;2023-06-10T02:27:45;19.89;69.95
74940;HTU21D;63505;45.226;37.908;2023-06-10T02:30:12;19.88;69.99
74940;HTU21D;63505;45.226;37.908;2023-06-10T02:32:38;19.90;70.00
74940;HTU21D;63505;45.226;37.908;2023-06-10T02:35:04;19.89;70.03
74940;HTU21D;63505;45.226;37.908;2023-06-10T02:37:32;19.89;70.06
74940;HTU21D;63505;45.226;37.908;2023-06-10T02:39:57;19.91;70.05
74940;HTU21D;63505;45.226;37.908;2023-06-10T02:42:24;19.92;70.07
74940;HTU21D;63505;45.226;37.908;2023-06-10T02:44:51;19.94;70.07
74940;HTU21D;63505;45.226;37.908;2023-06-10T02:47:27;19.95;70.05
74940;HTU21D;63505;45.226;37.908;2023-06-10T02:49:53;19.96;70.09
74940;HTU21D;63505;45.226;37.908;2023-06-10T02:52:19;19.97;70.16
74940;HTU21D;63505;45.226;37.908;2023-06-10T02:54:47;19.96;70.22
74940;HTU21D;63505;45.226;37.908;2023-06-10T02:57:13;19.96;70.23
74940;HTU21D;63505;45.226;37.908;2023-06-10T02:59:40;19.95;70.28
74940;HTU21D;63505;45.226;37.908;2023-06-10T03:02:07;19.96;70.32
74940;HTU21D;63505;45.226;37.908;2023-06-10T03:04:39;19.95;70.36
74940;HTU21D;63505;45.226;37.908;2023-06-10T03:07:12;19.95;70.39
74940;HTU21D;63505;45.226;37.908;2023-06-10T03:09:39;19.92;70.46
74940;HTU21D;63505;45.226;37.908;2023-06-10T03:12:09;19.86;70.59
74940;HTU21D;63505;45.226;37.908;2023-06-10T03:14:41;19.82;70.74
74940;HTU21D;63505;45.226;37.908;2023-06-10T03:17:07;19.77;70.91
74940;HTU21D;63505;45.226;37.908;2023-06-10T03:19:35;19.73;71.10
74940;HTU21D;63505;45.226;37.908;2023-06-10T03:22:14;19.73;71.31
74940;HTU21D;63505;45.226;37.908;2023-06-10T03:24:51;19.74;71.25
74940;HTU21D;63505;45.226;37.908;2023-06-10T03:27:18;19.76;71.32
74940;HTU21D;63505;45.226;37.908;2023-06-10T03:29:47;19.77;71.36
74940;HTU21D;63505;45.226;37.908;2023-06-10T03:32:14;19.80;71.42
74940;HTU21D;63505;45.226;37.908;2023-06-10T03:34:41;19.80;71.54
74940;HTU21D;63505;45.226;37.908;2023-06-10T03:37:08;19.79;71.64
74940;HTU21D;63505;45.226;37.908;2023-06-10T03:39:35;19.82;71.67
74940;HTU21D;63505;45.226;37.908;2023-06-10T03:42:01;19.83;71.76
74940;HTU21D;63505;45.226;37.908;2023-06-10T03:44:29;19.84;71.87
74940;HTU21D;63505;45.226;37.908;2023-06-10T03:46:55;19.88;71.93
74940;HTU21D;63505;45.226;37.908;2023-06-10T03:49:22;19.87;72.01
74940;HTU21D;63505;45.226;37.908;2023-06-10T03:51:56;19.89;72.12
74940;HTU21D;63505;45.226;37.908;2023-06-10T03:54:22;19.91;72.20
74940;HTU21D;63505;45.226;37.908;2023-06-10T03:56:48;19.96;72.28
74940;HTU21D;63505;45.226;37.908;2023-06-10T03:59:14;19.94;72.48
74940;HTU21D;63505;45.226;37.908;2023-06-10T04:01:40;19.96;72.67
74940;HTU21D;63505;45.226;37.908;2023-06-10T04:04:07;19.98;72.99
74940;HTU21D;63505;45.226;37.908;2023-06-10T04:06:34;19.99;73.22
74940;HTU21D;63505;45.226;37.908;2023-06-10T04:09:00;20.01;73.40
74940;HTU21D;63505;45.226;37.908;2023-06-10T04:11:27;20.03;73.53
74940;HTU21D;63505;45.226;37.908;2023-06-10T04:13:54;20.04;73.72
74940;HTU21D;63505;45.226;37.908;2023-06-10T04:16:21;20.11;73.80
74940;HTU21D;63505;45.226;37.908;2023-06-10T04:18:48;20.18;73.79
74940;HTU21D;63505;45.226;37.908;2023-06-10T04:21:14;20.21;73.80
74940;HTU21D;63505;45.226;37.908;2023-06-10T04:23:40;20.27;73.80
74940;HTU21D;63505;45.226;37.908;2023-06-10T04:26:07;20.33;73.74
74940;HTU21D;63505;45.226;37.908;2023-06-10T04:28:33;20.34;73.91
74940;HTU21D;63505;45.226;37.908;2023-06-10T04:30:59;20.36;74.03
74940;HTU21D;63505;45.226;37.908;2023-06-10T04:33:26;20.42;74.23
74940;HTU21D;63505;45.226;37.908;2023-06-10T04:35:54;20.56;74.04
74940;HTU21D;63505;45.226;37.908;2023-06-10T04:38:22;20.81;73.77
74940;HTU21D;63505;45.226;37.908;2023-06-10T04:40:48;21.05;73.23
74940;HTU21D;63505;45.226;37.908;2023-06-10T04:43:15;21.19;72.88
74940;HTU21D;63505;45.226;37.908;2023-06-10T04:45:44;21.32;72.68
74940;HTU21D;63505;45.226;37.908;2023-06-10T04:48:11;21.49;72.39
74940;HTU21D;63505;45.226;37.908;2023-06-10T04:50:37;21.58;71.97
74940;HTU21D;63505;45.226;37.908;2023-06-10T04:53:03;21.69;71.71
74940;HTU21D;63505;45.226;37.908;2023-06-10T04:55:30;21.74;71.55
74940;HTU21D;63505;45.226;37.908;2023-06-10T04:57:56;21.79;71.51
74940;HTU21D;63505;45.226;37.908;2023-06-10T05:00:23;21.89;71.40
74940;HTU21D;63505;45.226;37.908;2023-06-10T05:02:48;22.12;71.22
74940;HTU21D;63505;45.226;37.908;2023-06-10T05:05:18;22.36;70.86
74940;HTU21D;63505;45.226;37.908;2023-06-10T05:07:44;22.34;70.16
74940;HTU21D;63505;45.226;37.908;2023-06-10T05:10:10;22.40;70.39
74940;HTU21D;63505;45.226;37.908;2023-06-10T05:12:38;22.54;70.32
74940;HTU21D;63505;45.226;37.908;2023-06-10T05:15:06;22.79;70.13
74940;HTU21D;63505;45.226;37.908;2023-06-10T05:17:32;23.05;69.61
74940;HTU21D;63505;45.226;37.908;2023-06-10T05:19:58;23.14;69.25
74940;HTU21D;63505;45.226;37.908;2023-06-10T05:22:23;23.20;68.80
74940;HTU21D;63505;45.226;37.908;2023-06-10T05:24:53;23.20;68.75
74940;HTU21D;63505;45.226;37.908;2023-06-10T05:27:19;23.24;68.65
74940;HTU21D;63505;45.226;37.908;2023-06-10T05:29:45;23.32;68.30
74940;HTU21D;63505;45.226;37.908;2023-06-10T05:32:11;23.50;67.80
74940;HTU21D;63505;45.226;37.908;2023-06-10T05:34:37;23.58;67.15
74940;HTU21D;63505;45.226;37.908;2023-06-10T05:37:03;23.72;67.03
74940;HTU21D;63505;45.226;37.908;2023-06-10T05:39:29;23.85;66.33
74940;HTU21D;63505;45.226;37.908;2023-06-10T05:41:55;23.94;66.14
74940;HTU21D;63505;45.226;37.908;2023-06-10T05:44:21;24.16;65.73
74940;HTU21D;63505;45.226;37.908;2023-06-10T05:46:47;24.33;65.28
74940;HTU21D;63505;45.226;37.908;2023-06-10T05:49:12;24.51;64.86
74940;HTU21D;63505;45.226;37.908;2023-06-10T05:51:38;24.68;64.38
74940;HTU21D;63505;45.226;37.908;2023-06-10T05:54:04;24.71;63.83
74940;HTU21D;63505;45.226;37.908;2023-06-10T05:56:30;24.65;63.77
74940;HTU21D;63505;45.226;37.908;2023-06-10T05:58:56;24.73;63.79
74940;HTU21D;63505;45.226;37.908;2023-06-10T06:01:22;24.88;63.53
74940;HTU21D;63505;45.226;37.908;2023-06-10T06:03:47;25.05;63.33
74940;HTU21D;63505;45.226;37.908;2023-06-10T06:06:13;25.24;63.37
74940;HTU21D;63505;45.226;37.908;2023-06-10T06:08:39;25.45;63.02
74940;HTU21D;63505;45.226;37.908;2023-06-10T06:11:05;25.61;62.36
74940;HTU21D;63505;45.226;37.908;2023-06-10T06:13:31;25.65;61.75
74940;HTU21D;63505;45.226;37.908;2023-06-10T06:15:57;25.69;61.38
74940;HTU21D;63505;45.226;37.908;2023-06-10T06:18:22;25.84;61.44
74940;HTU21D;63505;45.226;37.908;2023-06-10T06:20:49;25.77;60.59
74940;HTU21D;63505;45.226;37.908;2023-06-10T06:23:15;25.48;60.36
74940;HTU21D;63505;45.226;37.908;2023-06-10T06:25:41;25.19;60.96
74940;HTU21D;63505;45.226;37.908;2023-06-10T06:28:07;25.09;61.57
74940;HTU21D;63505;45.226;37.908;2023-06-10T06:30:35;25.21;61.75
74940;HTU21D;63505;45.226;37.908;2023-06-10T06:33:01;25.47;61.62
74940;HTU21D;63505;45.226;37.908;2023-06-10T06:35:27;25.72;61.13
74940;HTU21D;63505;45.226;37.908;2023-06-10T06:37:53;25.78;60.77
74940;HTU21D;63505;45.226;37.908;2023-06-10T06:40:24;25.76;60.71
74940;HTU21D;63505;45.226;37.908;2023-06-10T06:42:50;25.60;60.96
74940;HTU21D;63505;45.226;37.908;2023-06-10T06:45:36;25.58;60.98
74940;HTU21D;63505;45.226;37.908;2023-06-10T06:48:02;25.50;60.98
74940;HTU21D;63505;45.226;37.908;2023-06-10T06:50:27;25.50;61.20
74940;HTU21D;63505;45.226;37.908;2023-06-10T06:52:53;25.59;61.19
74940;HTU21D;63505;45.226;37.908;2023-06-10T06:55:19;25.62;61.02
74940;HTU21D;63505;45.226;37.908;2023-06-10T06:57:45;25.66;60.97
74940;HTU21D;63505;45.226;37.908;2023-06-10T07:00:12;25.73;60.96
74940;HTU21D;63505;45.226;37.908;2023-06-10T07:02:38;25.78;60.91
74940;HTU21D;63505;45.226;37.908;2023-06-10T07:05:04;25.99;60.78
74940;HTU21D;63505;45.226;37.908;2023-06-10T07:07:31;26.23;60.19
74940;HTU21D;63505;45.226;37.908;2023-06-10T07:09:56;26.33;59.51
74940;HTU21D;63505;45.226;37.908;2023-06-10T07:12:22;26.35;59.27
74940;HTU21D;63505;45.226;37.908;2023-06-10T07:14:50;26.31;58.74
74940;HTU21D;63505;45.226;37.908;2023-06-10T07:17:17;26.30;58.88
74940;HTU21D;63505;45.226;37.908;2023-06-10T07:19:44;26.48;58.77
74940;HTU21D;63505;45.226;37.908;2023-06-10T07:22:10;26.60;58.24
74940;HTU21D;63505;45.226;37.908;2023-06-10T07:24:35;26.69;57.93
74940;HTU21D;63505;45.226;37.908;2023-06-10T07:27:01;27.06;57.54
74940;HTU21D;63505;45.226;37.908;2023-06-10T07:29:27;27.28;56.71
74940;HTU21D;63505;45.226;37.908;2023-06-10T07:31:53;27.36;56.73
74940;HTU21D;63505;45.226;37.908;2023-06-10T07:34:19;27.38;55.82
74940;HTU21D;63505;45.226;37.908;2023-06-10T07:36:45;27.42;56.04
74940;HTU21D;63505;45.226;37.908;2023-06-10T07:39:11;27.51;56.47
74940;HTU21D;63505;45.226;37.908;2023-06-10T07:41:37;27.57;56.08
74940;HTU21D;63505;45.226;37.908;2023-06-10T07:44:03;27.69;56.01
74940;HTU21D;63505;45.226;37.908;2023-06-10T07:46:29;27.84;55.68
74940;HTU21D;63505;45.226;37.908;2023-06-10T07:48:55;27.96;55.16
74940;HTU21D;63505;45.226;37.908;2023-06-10T07:51:21;27.96;54.95
74940;HTU21D;63505;45.226;37.908;2023-06-10T07:53:47;27.94;55.02
74940;HTU21D;63505;45.226;37.908;2023-06-10T07:56:13;27.67;54.94
74940;HTU21D;63505;45.226;37.908;2023-06-10T07:58:39;27.54;55.33
74940;HTU21D;63505;45.226;37.908;2023-06-10T08:01:05;27.55;55.47
74940;HTU21D;63505;45.226;37.908;2023-06-10T08:03:30;27.45;55.87
74940;HTU21D;63505;45.226;37.908;2023-06-10T08:05:56;27.27;55.75
74940;HTU21D;63505;45.226;37.908;2023-06-10T08:08:22;27.15;55.94
74940;HTU21D;63505;45.226;37.908;2023-06-10T08:10:48;27.06;56.04
74940;HTU21D;63505;45.226;37.908;2023-06-10T08:13:16;26.96;56.43
74940;HTU21D;63505;45.226;37.908;2023-06-10T08:15:42;26.84;56.55
74940;HTU21D;63505;45.226;37.908;2023-06-10T08:18:07;26.81;56.69
74940;HTU21D;63505;45.226;37.908;2023-06-10T08:20:33;26.82;56.81
74940;HTU21D;63505;45.226;37.908;2023-06-10T08:22:59;26.95;56.99
74940;HTU21D;63505;45.226;37.908;2023-06-10T08:25:25;27.05;56.88
74940;HTU21D;63505;45.226;37.908;2023-06-10T08:27:51;27.10;56.79
74940;HTU21D;63505;45.226;37.908;2023-06-10T08:30:17;27.28;56.61
74940;HTU21D;63505;45.226;37.908;2023-06-10T08:32:43;27.38;56.36
74940;HTU21D;63505;45.226;37.908;2023-06-10T08:35:09;27.38;56.29
74940;HTU21D;63505;45.226;37.908;2023-06-10T08:37:35;27.51;56.39
74940;HTU21D;63505;45.226;37.908;2023-06-10T08:40:01;27.56;56.32
74940;HTU21D;63505;45.226;37.908;2023-06-10T08:42:39;27.70;56.14
74940;HTU21D;63505;45.226;37.908;2023-06-10T08:45:07;27.83;55.87
74940;HTU21D;63505;45.226;37.908;2023-06-10T08:47:33;28.17;55.83
74940;HTU21D;63505;45.226;37.908;2023-06-10T08:50:04;28.56;55.26
74940;HTU21D;63505;45.226;37.908;2023-06-10T08:52:41;28.84;55.00
74940;HTU21D;63505;45.226;37.908;2023-06-10T08:55:15;29.05;54.90
74940;HTU21D;63505;45.226;37.908;2023-06-10T08:57:45;29.44;54.55
74940;HTU21D;63505;45.226;37.908;2023-06-10T09:00:13;29.76;54.27
74940;HTU21D;63505;45.226;37.908;2023-06-10T09:02:40;29.76;52.72
74940;HTU21D;63505;45.226;37.908;2023-06-10T09:05:07;29.54;53.06
74940;HTU21D;63505;45.226;37.908;2023-06-10T09:07:33;29.64;52.99
74940;HTU21D;63505;45.226;37.908;2023-06-10T09:10:02;29.58;52.52
74940;HTU21D;63505;45.226;37.908;2023-06-10T09:12:35;29.30;52.02
74940;HTU21D;63505;45.226;37.908;2023-06-10T09:15:04;29.22;52.72
74940;HTU21D;63505;45.226;37.908;2023-06-10T09:17:30;29.47;52.36
74940;HTU21D;63505;45.226;37.908;2023-06-10T09:19:56;29.51;52.14
74940;HTU21D;63505;45.226;37.908;2023-06-10T09:22:23;29.30;52.29
74940;HTU21D;63505;45.226;37.908;2023-06-10T09:24:49;29.21;52.78
74940;HTU21D;63505;45.226;37.908;2023-06-10T09:27:15;29.21;53.07
74940;HTU21D;63505;45.226;37.908;2023-06-10T09:29:51;29.04;53.05
74940;HTU21D;63505;45.226;37.908;2023-06-10T09:32:18;28.64;53.17
74940;HTU21D;63505;45.226;37.908;2023-06-10T09:34:45;28.38;53.99
74940;HTU21D;63505;45.226;37.908;2023-06-10T09:37:11;28.16;54.35
74940;HTU21D;63505;45.226;37.908;2023-06-10T09:39:42;27.96;54.75
74940;HTU21D;63505;45.226;37.908;2023-06-10T09:42:18;27.68;55.39
74940;HTU21D;63505;45.226;37.908;2023-06-10T09:44:51;27.45;55.84
74940;HTU21D;63505;45.226;37.908;2023-06-10T09:47:21;27.23;56.29
74940;HTU21D;63505;45.226;37.908;2023-06-10T09:49:49;27.13;56.59
74940;HTU21D;63505;45.226;37.908;2023-06-10T09:52:26;26.92;57.21
74940;HTU21D;63505;45.226;37.908;2023-06-10T09:54:58;26.71;57.90
74940;HTU21D;63505;45.226;37.908;2023-06-10T09:57:25;26.61;58.18
74940;HTU21D;63505;45.226;37.908;2023-06-10T09:59:54;26.52;58.24
74940;HTU21D;63505;45.226;37.908;2023-06-10T10:02:21;26.41;58.58
74940;HTU21D;63505;45.226;37.908;2023-06-10T10:04:47;26.24;59.19
74940;HTU21D;63505;45.226;37.908;2023-06-10T10:07:13;26.03;60.04
74940;HTU21D;63505;45.226;37.908;2023-06-10T10:09:40;25.81;61.05
74940;HTU21D;63505;45.226;37.908;2023-06-10T10:12:14;25.62;61.79
74940;HTU21D;63505;45.226;37.908;2023-06-10T10:14:45;25.42;62.30
74940;HTU21D;63505;45.226;37.908;2023-06-10T10:17:11;25.28;62.55
74940;HTU21D;63505;45.226;37.908;2023-06-10T10:19:46;25.19;62.91
74940;HTU21D;63505;45.226;37.908;2023-06-10T10:22:19;25.07;63.52
74940;HTU21D;63505;45.226;37.908;2023-06-10T10:24:56;24.92;64.18
74940;HTU21D;63505;45.226;37.908;2023-06-10T10:27:51;24.78;64.73
74940;HTU21D;63505;45.226;37.908;2023-06-10T10:30:20;24.65;65.04
74940;HTU21D;63505;45.226;37.908;2023-06-10T10:33:08;24.55;65.80
74940;HTU21D;63505;45.226;37.908;2023-06-10T10:35:36;24.44;66.22
74940;HTU21D;63505;45.226;37.908;2023-06-10T10:38:02;24.33;66.40
74940;HTU21D;63505;45.226;37.908;2023-06-10T10:40:29;24.24;66.66
74940;HTU21D;63505;45.226;37.908;2023-06-10T10:42:56;24.13;67.07
74940;HTU21D;63505;45.226;37.908;2023-06-10T10:45:22;24.04;67.32
74940;HTU21D;63505;45.226;37.908;2023-06-10T10:47:52;23.99;67.71
74940;HTU21D;63505;45.226;37.908;2023-06-10T10:50:20;23.92;67.91
74940;HTU21D;63505;45.226;37.908;2023-06-10T10:52:51;23.88;68.28
74940;HTU21D;63505;45.226;37.908;2023-06-10T10:55:18;23.82;68.53
74940;HTU21D;63505;45.226;37.908;2023-06-10T10:57:44;23.74;68.82
74940;HTU21D;63505;45.226;37.908;2023-06-10T11:00:11;23.69;69.39
74940;HTU21D;63505;45.226;37.908;2023-06-10T11:02:41;23.62;69.69
74940;HTU21D;63505;45.226;37.908;2023-06-10T11:05:10;23.61;69.74
74940;HTU21D;63505;45.226;37.908;2023-06-10T11:07:36;23.59;69.89
74940;HTU21D;63505;45.226;37.908;2023-06-10T11:10:05;23.56;70.03
74940;HTU21D;63505;45.226;37.908;2023-06-10T11:12:51;23.52;70.42
74940;HTU21D;63505;45.226;37.908;2023-06-10T11:15:25;23.47;70.37
74940;HTU21D;63505;45.226;37.908;2023-06-10T11:18:12;23.42;70.85
74940;HTU21D;63505;45.226;37.908;2023-06-10T11:34:02;22.99;72.65
74940;HTU21D;63505;45.226;37.908;2023-06-10T11:36:30;22.95;72.87
74940;HTU21D;63505;45.226;37.908;2023-06-10T11:39:01;22.94;73.12
74940;HTU21D;63505;45.226;37.908;2023-06-10T11:41:29;22.92;73.26
74940;HTU21D;63505;45.226;37.908;2023-06-10T11:44:17;22.90;73.35
74940;HTU21D;63505;45.226;37.908;2023-06-10T11:46:42;22.86;72.90
74940;HTU21D;63505;45.226;37.908;2023-06-10T11:49:11;22.85;73.12
74940;HTU21D;63505;45.226;37.908;2023-06-10T11:51:38;22.83;72.79
74940;HTU21D;63505;45.226;37.908;2023-06-10T11:54:08;22.83;73.24
74940;HTU21D;63505;45.226;37.908;2023-06-10T11:56:34;22.82;73.62
74940;HTU21D;63505;45.226;37.908;2023-06-10T11:59:04;22.82;74.00
74940;HTU21D;63505;45.226;37.908;2023-06-10T12:01:35;22.81;74.35
74940;HTU21D;63505;45.226;37.908;2023-06-10T12:04:06;22.80;74.65
74940;HTU21D;63505;45.226;37.908;2023-06-10T12:06:44;22.79;74.99
74940;HTU21D;63505;45.226;37.908;2023-06-10T12:09:22;22.80;75.12
74940;HTU21D;63505;45.226;37.908;2023-06-10T12:12:01;22.79;75.27
74940;HTU21D;63505;45.226;37.908;2023-06-10T12:14:55;22.78;75.65
74940;HTU21D;63505;45.226;37.908;2023-06-10T12:19:58;22.77;75.74
74940;HTU21D;63505;45.226;37.908;2023-06-10T12:22:24;22.77;75.98
74940;HTU21D;63505;45.226;37.908;2023-06-10T12:25:01;22.77;76.37
74940;HTU21D;63505;45.226;37.908;2023-06-10T12:27:29;22.79;76.41
74940;HTU21D;63505;45.226;37.908;2023-06-10T12:29:56;22.79;76.64
74940;HTU21D;63505;45.226;37.908;2023-06-10T12:32:45;22.80;76.88
74940;HTU21D;63505;45.226;37.908;2023-06-10T12:35:13;22.81;77.03
74940;HTU21D;63505;45.226;37.908;2023-06-10T12:37:39;22.82;77.22
74940;HTU21D;63505;45.226;37.908;2023-06-10T12:40:06;22.81;77.39
74940;HTU21D;63505;45.226;37.908;2023-06-10T12:42:35;22.80;77.55
74940;HTU21D;63505;45.226;37.908;2023-06-10T12:45:03;22.77;77.69
74940;HTU21D;63505;45.226;37.908;2023-06-10T12:47:33;22.76;77.90
74940;HTU21D;63505;45.226;37.908;2023-06-10T12:50:05;22.75;77.98
74940;HTU21D;63505;45.226;37.908;2023-06-10T12:52:31;22.75;78.14
74940;HTU21D;63505;45.226;37.908;2023-06-10T12:54:58;22.77;78.26
74940;HTU21D;63505;45.226;37.908;2023-06-10T12:57:24;22.78;78.36
74940;HTU21D;63505;45.226;37.908;2023-06-10T12:59:50;22.79;78.47
74940;HTU21D;63505;45.226;37.908;2023-06-10T13:02:21;22.78;78.59
74940;HTU21D;63505;45.226;37.908;2023-06-10T13:04:50;22.78;78.71
74940;HTU21D;63505;45.226;37.908;2023-06-10T13:07:16;22.78;78.82
74940;HTU21D;63505;45.226;37.908;2023-06-10T13:09:42;22.78;78.92
74940;HTU21D;63505;45.226;37.908;2023-06-10T13:12:09;22.77;79.04
74940;HTU21D;63505;45.226;37.908;2023-06-10T13:14:36;22.78;79.17
74940;HTU21D;63505;45.226;37.908;2023-06-10T13:17:04;22.77;79.34
74940;HTU21D;63505;45.226;37.908;2023-06-10T13:19:33;22.77;79.49
74940;HTU21D;63505;45.226;37.908;2023-06-10T13:21:59;22.75;79.59
74940;HTU21D;63505;45.226;37.908;2023-06-10T13:24:25;22.73;79.72
74940;HTU21D;63505;45.226;37.908;2023-06-10T13:26:51;22.72;79.82
74940;HTU21D;63505;45.226;37.908;2023-06-10T13:29:17;22.69;79.92
74940;HTU21D;63505;45.226;37.908;2023-06-10T13:31:43;22.66;80.02
74940;HTU21D;63505;45.226;37.908;2023-06-10T13:34:09;22.62;80.13
74940;HTU21D;63505;45.226;37.908;2023-06-10T13:36:35;22.60;80.27
74940;HTU21D;63505;45.226;37.908;2023-06-10T13:39:01;22.57;80.41
74940;HTU21D;63505;45.226;37.908;2023-06-10T13:41:27;22.51;80.54
74940;HTU21D;63505;45.226;37.908;2023-06-10T13:43:54;22.47;80.67
74940;HTU21D;63505;45.226;37.908;2023-06-10T13:46:21;22.41;80.81
74940;HTU21D;63505;45.226;37.908;2023-06-10T13:48:50;22.35;80.98
74940;HTU21D;63505;45.226;37.908;2023-06-10T13:51:16;22.28;81.17
74940;HTU21D;63505;45.226;37.908;2023-06-10T13:53:42;22.20;81.36
74940;HTU21D;63505;45.226;37.908;2023-06-10T13:56:08;22.13;81.53
74940;HTU21D;63505;45.226;37.908;2023-06-10T13:58:34;22.07;81.68
74940;HTU21D;63505;45.226;37.908;2023-06-10T14:01:05;21.99;81.77
74940;HTU21D;63505;45.226;37.908;2023-06-10T14:03:30;21.93;81.91
74940;HTU21D;63505;45.226;37.908;2023-06-10T14:05:56;21.84;82.02
74940;HTU21D;63505;45.226;37.908;2023-06-10T14:08:22;21.77;82.12
74940;HTU21D;63505;45.226;37.908;2023-06-10T14:10:48;21.67;82.23
74940;HTU21D;63505;45.226;37.908;2023-06-10T14:13:17;21.61;82.30
74940;HTU21D;63505;45.226;37.908;2023-06-10T14:15:43;21.58;82.36
74940;HTU21D;63505;45.226;37.908;2023-06-10T14:18:09;21.52;82.44
74940;HTU21D;63505;45.226;37.908;2023-06-10T14:20:35;21.47;82.51
74940;HTU21D;63505;45.226;37.908;2023-06-10T14:23:02;21.43;82.61
74940;HTU21D;63505;45.226;37.908;2023-06-10T14:25:28;21.39;82.64
74940;HTU21D;63505;45.226;37.908;2023-06-10T14:27:54;21.37;82.68
74940;HTU21D;63505;45.226;37.908;2023-06-10T14:30:20;21.35;82.71
74940;HTU21D;63505;45.226;37.908;2023-06-10T14:32:46;21.33;82.77
74940;HTU21D;63505;45.226;37.908;2023-06-10T14:35:12;21.30;82.82
74940;HTU21D;63505;45.226;37.908;2023-06-10T14:37:38;21.29;82.84
74940;HTU21D;63505;45.226;37.908;2023-06-10T14:40:04;21.27;82.89
74940;HTU21D;63505;45.226;37.908;2023-06-10T14:42:31;21.27;82.94
74940;HTU21D;63505;45.226;37.908;2023-06-10T14:44:58;21.25;82.98
74940;HTU21D;63505;45.226;37.908;2023-06-10T14:47:24;21.27;83.00
74940;HTU21D;63505;45.226;37.908;2023-06-10T14:49:50;21.30;83.06
74940;HTU21D;63505;45.226;37.908;2023-06-10T14:52:16;21.32;83.08
74940;HTU21D;63505;45.226;37.908;2023-06-10T14:54:42;21.36;83.14
74940;HTU21D;63505;45.226;37.908;2023-06-10T14:57:08;21.42;83.16
74940;HTU21D;63505;45.226;37.908;2023-06-10T14:59:34;21.49;83.11
74940;HTU21D;63505;45.226;37.908;2023-06-10T15:02:00;21.54;83.07
74940;HTU21D;63505;45.226;37.908;2023-06-10T15:04:27;21.59;83.07
74940;HTU21D;63505;45.226;37.908;2023-06-10T15:06:53;21.66;83.09
74940;HTU21D;63505;45.226;37.908;2023-06-10T15:09:19;21.74;83.08
74940;HTU21D;63505;45.226;37.908;2023-06-10T15:11:46;21.79;83.10
74940;HTU21D;63505;45.226;37.908;2023-06-10T15:14:11;21.84;83.13
74940;HTU21D;63505;45.226;37.908;2023-06-10T15:16:37;21.90;83.16
74940;HTU21D;63505;45.226;37.908;2023-06-10T15:19:03;21.93;83.16
74940;HTU21D;63505;45.226;37.908;2023-06-10T15:21:32;21.96;83.19
74940;HTU21D;63505;45.226;37.908;2023-06-10T15:23:58;21.97;83.27
74940;HTU21D;63505;45.226;37.908;2023-06-10T15:26:24;21.99;83.32
74940;HTU21D;63505;45.226;37.908;2023-06-10T15:28:50;21.98;83.42